world map with HUI marked

HUI - Airport

This information may not be accurate or current and is not valid for navigation or flight planning. No warranty of fitness for any purpose is made or implied.

flag of Vietnam

Donate via PayPal

Additional information is available on the NEW Great Circle Mapper

Location
City:  Huê', Vietnam
Name:Phu Bai International Airport
ICAO / IATA:VVPB / HUI

Details
Type:Airport (Aerodrome, Airfield)
Latitude:16°24'05"N (16.401500)
Longitude:107°42'09"E (107.702614)
Datum:WGS 1984
Elevation:48 ft (15 m)
Runways:1
Longest:8775 × 130 ft (2675 × 39.5 m)

Time
Timezone:UTC+7 (DST+9)
Local Time:

Weather
METAR:VVPB  041400Z VRB02KT 8000 SCT017 BKN040 22/22 Q1016 NOSIG
TAF:VVPB  041100Z 0412/0512 06006KT 9999 SCT013 BKN040 TEMPO 0413/0420 4000 RA BR TEMPO 0420/0501 2000 RA BR

Related Locations
Nearby:
Farthest:SPSI: 12440 mi / 20021 km
Siguas, ARE, PE

Find:

   beyond  
but within

Other Information
Maps:
Sources:

  


 


Great Circle Mapper   Great Circle Mapper
Great Circle Mapper FAQ   Great Circle Mapper FAQ
  Karl's Home Page
KLS²   KLS² Home
   GC on Facebook
Airlines of the World   Airlines of the World
Donate via PayPal


Copyright © 2004-2020, Karl L. Swartz. All rights reserved.
All trademarks mentioned herein belong to their respective owners.

Please see credits for attribution and copyright information.

Karl Swartz <karl@kls2.com>
  Powered by FreeBSD
Valid HTML 4.01!
Labeled with ICRA
hCard Microformat
Geo Microformat